sensor_id;sensor_type;location;lat;lon;timestamp;P1;durP1;ratioP1;P2;durP2;ratioP2
1537;SDS011;12022;52.266;10.522;2023-04-03T00:01:06;1.47;;;1.47;;
1537;SDS011;12022;52.266;10.522;2023-04-03T00:03:33;2.23;;;2.20;;
1537;SDS011;12022;52.266;10.522;2023-04-03T00:06:01;2.00;;;2.00;;
1537;SDS011;12022;52.266;10.522;2023-04-03T00:08:29;2.03;;;2.03;;
1537;SDS011;12022;52.266;10.522;2023-04-03T00:10:59;1.93;;;1.93;;
1537;SDS011;12022;52.266;10.522;2023-04-03T00:13:26;1.43;;;1.43;;
1537;SDS011;12022;52.266;10.522;2023-04-03T00:15:53;1.43;;;1.43;;
1537;SDS011;12022;52.266;10.522;2023-04-03T00:18:20;1.60;;;1.60;;
1537;SDS011;12022;52.266;10.522;2023-04-03T00:20:48;1.70;;;1.70;;
1537;SDS011;12022;52.266;10.522;2023-04-03T00:23:16;1.70;;;1.70;;
1537;SDS011;12022;52.266;10.522;2023-04-03T00:25:43;1.50;;;1.50;;
1537;SDS011;12022;52.266;10.522;2023-04-03T00:28:10;1.17;;;1.17;;
1537;SDS011;12022;52.266;10.522;2023-04-03T00:30:37;1.60;;;1.60;;
1537;SDS011;12022;52.266;10.522;2023-04-03T00:33:05;1.53;;;1.53;;
1537;SDS011;12022;52.266;10.522;2023-04-03T00:35:33;1.50;;;1.50;;
1537;SDS011;12022;52.266;10.522;2023-04-03T00:38:01;1.37;;;1.37;;
1537;SDS011;12022;52.266;10.522;2023-04-03T00:40:28;1.30;;;1.30;;
1537;SDS011;12022;52.266;10.522;2023-04-03T00:43:01;1.63;;;1.63;;
1537;SDS011;12022;52.266;10.522;2023-04-03T00:45:35;1.53;;;1.53;;
1537;SDS011;12022;52.266;10.522;2023-04-03T00:48:04;1.47;;;1.47;;
1537;SDS011;12022;52.266;10.522;2023-04-03T00:50:37;1.80;;;1.80;;
1537;SDS011;12022;52.266;10.522;2023-04-03T00:53:07;1.90;;;1.90;;
1537;SDS011;12022;52.266;10.522;2023-04-03T00:55:38;1.50;;;1.50;;
1537;SDS011;12022;52.266;10.522;2023-04-03T00:58:06;1.57;;;1.57;;
1537;SDS011;12022;52.266;10.522;2023-04-03T01:00:33;1.10;;;1.10;;
1537;SDS011;12022;52.266;10.522;2023-04-03T01:03:05;2.00;;;2.00;;
1537;SDS011;12022;52.266;10.522;2023-04-03T01:05:32;1.67;;;1.67;;
1537;SDS011;12022;52.266;10.522;2023-04-03T01:07:59;1.77;;;1.77;;
1537;SDS011;12022;52.266;10.522;2023-04-03T01:10:27;1.23;;;1.23;;
1537;SDS011;12022;52.266;10.522;2023-04-03T01:12:54;1.43;;;1.43;;
1537;SDS011;12022;52.266;10.522;2023-04-03T01:15:23;1.43;;;1.43;;
1537;SDS011;12022;52.266;10.522;2023-04-03T01:17:54;1.77;;;1.77;;
1537;SDS011;12022;52.266;10.522;2023-04-03T01:25:32;1.40;;;1.40;;
1537;SDS011;12022;52.266;10.522;2023-04-03T01:28:00;1.97;;;1.97;;
1537;SDS011;12022;52.266;10.522;2023-04-03T01:30:30;1.53;;;1.53;;
1537;SDS011;12022;52.266;10.522;2023-04-03T01:33:00;1.50;;;1.50;;
1537;SDS011;12022;52.266;10.522;2023-04-03T01:35:28;1.30;;;1.30;;
1537;SDS011;12022;52.266;10.522;2023-04-03T01:37:55;2.67;;;2.67;;
1537;SDS011;12022;52.266;10.522;2023-04-03T01:40:23;1.93;;;1.93;;
1537;SDS011;12022;52.266;10.522;2023-04-03T01:42:51;2.00;;;2.00;;
1537;SDS011;12022;52.266;10.522;2023-04-03T04:36:15;1.50;;;1.50;;
1537;SDS011;12022;52.266;10.522;2023-04-03T04:39:22;1.90;;;1.90;;
1537;SDS011;12022;52.266;10.522;2023-04-03T04:41:49;1.17;;;1.17;;
1537;SDS011;12022;52.266;10.522;2023-04-03T04:44:16;1.63;;;1.63;;
1537;SDS011;12022;52.266;10.522;2023-04-03T04:46:43;2.23;;;2.23;;
1537;SDS011;12022;52.266;10.522;2023-04-03T04:49:10;2.03;;;2.03;;
1537;SDS011;12022;52.266;10.522;2023-04-03T04:51:37;1.90;;;1.90;;
1537;SDS011;12022;52.266;10.522;2023-04-03T04:54:17;1.80;;;1.80;;
1537;SDS011;12022;52.266;10.522;2023-04-03T04:56:44;2.07;;;2.07;;
1537;SDS011;12022;52.266;10.522;2023-04-03T04:59:11;1.70;;;1.70;;
1537;SDS011;12022;52.266;10.522;2023-04-03T05:01:38;1.17;;;1.17;;
1537;SDS011;12022;52.266;10.522;2023-04-03T05:04:05;2.00;;;2.00;;
1537;SDS011;12022;52.266;10.522;2023-04-03T05:06:32;1.87;;;1.87;;
1537;SDS011;12022;52.266;10.522;2023-04-03T05:08:59;1.90;;;1.90;;
1537;SDS011;12022;52.266;10.522;2023-04-03T05:11:26;1.77;;;1.77;;
1537;SDS011;12022;52.266;10.522;2023-04-03T05:13:53;1.77;;;1.77;;
1537;SDS011;12022;52.266;10.522;2023-04-03T05:16:20;1.60;;;1.60;;
1537;SDS011;12022;52.266;10.522;2023-04-03T05:18:47;2.00;;;2.00;;
1537;SDS011;12022;52.266;10.522;2023-04-03T05:21:14;2.07;;;2.07;;
1537;SDS011;12022;52.266;10.522;2023-04-03T05:23:41;1.20;;;1.20;;
1537;SDS011;12022;52.266;10.522;2023-04-03T05:26:08;1.67;;;1.67;;
1537;SDS011;12022;52.266;10.522;2023-04-03T05:28:35;15.57;;;14.67;;
1537;SDS011;12022;52.266;10.522;2023-04-03T05:31:02;1.57;;;1.57;;
1537;SDS011;12022;52.266;10.522;2023-04-03T05:33:29;2.30;;;2.30;;
1537;SDS011;12022;52.266;10.522;2023-04-03T05:35:56;2.33;;;2.33;;
1537;SDS011;12022;52.266;10.522;2023-04-03T05:38:29;1.73;;;1.73;;
1537;SDS011;12022;52.266;10.522;2023-04-03T05:40:58;1.73;;;1.73;;
1537;SDS011;12022;52.266;10.522;2023-04-03T05:43:25;1.93;;;1.93;;
1537;SDS011;12022;52.266;10.522;2023-04-03T05:45:52;1.60;;;1.60;;
1537;SDS011;12022;52.266;10.522;2023-04-03T05:48:19;1.70;;;1.70;;
1537;SDS011;12022;52.266;10.522;2023-04-03T05:50:47;2.37;;;2.37;;
1537;SDS011;12022;52.266;10.522;2023-04-03T05:53:15;1.77;;;1.77;;
1537;SDS011;12022;52.266;10.522;2023-04-03T05:55:47;1.97;;;1.97;;
1537;SDS011;12022;52.266;10.522;2023-04-03T05:58:14;1.00;;;1.00;;
1537;SDS011;12022;52.266;10.522;2023-04-03T06:00:41;1.80;;;1.80;;
1537;SDS011;12022;52.266;10.522;2023-04-03T06:03:08;2.23;;;2.23;;
1537;SDS011;12022;52.266;10.522;2023-04-03T06:05:35;2.23;;;2.23;;
1537;SDS011;12022;52.266;10.522;2023-04-03T06:08:03;2.23;;;2.23;;
1537;SDS011;12022;52.266;10.522;2023-04-03T06:10:30;2.50;;;2.50;;
1537;SDS011;12022;52.266;10.522;2023-04-03T06:12:57;2.87;;;2.87;;
1537;SDS011;12022;52.266;10.522;2023-04-03T06:15:24;2.27;;;2.27;;
1537;SDS011;12022;52.266;10.522;2023-04-03T06:17:51;2.67;;;2.67;;
1537;SDS011;12022;52.266;10.522;2023-04-03T06:20:18;2.27;;;2.27;;
1537;SDS011;12022;52.266;10.522;2023-04-03T06:22:45;2.17;;;2.17;;
1537;SDS011;12022;52.266;10.522;2023-04-03T06:25:12;2.90;;;2.90;;
1537;SDS011;12022;52.266;10.522;2023-04-03T06:27:39;2.77;;;2.77;;
1537;SDS011;12022;52.266;10.522;2023-04-03T06:30:06;3.10;;;3.10;;
1537;SDS011;12022;52.266;10.522;2023-04-03T06:32:33;4.20;;;4.20;;
1537;SDS011;12022;52.266;10.522;2023-04-03T06:35:01;6.77;;;6.67;;
1537;SDS011;12022;52.266;10.522;2023-04-03T06:37:28;5.40;;;5.30;;
1537;SDS011;12022;52.266;10.522;2023-04-03T06:39:56;4.10;;;4.10;;
1537;SDS011;12022;52.266;10.522;2023-04-03T06:42:23;9.73;;;9.53;;
1537;SDS011;12022;52.266;10.522;2023-04-03T06:44:50;8.00;;;7.90;;
1537;SDS011;12022;52.266;10.522;2023-04-03T06:47:17;15.20;;;14.90;;
1537;SDS011;12022;52.266;10.522;2023-04-03T06:49:44;16.50;;;16.20;;
1537;SDS011;12022;52.266;10.522;2023-04-03T06:52:15;16.23;;;15.93;;
1537;SDS011;12022;52.266;10.522;2023-04-03T06:54:42;19.00;;;18.60;;
1537;SDS011;12022;52.266;10.522;2023-04-03T06:57:09;10.53;;;10.37;;
1537;SDS011;12022;52.266;10.522;2023-04-03T06:59:36;9.60;;;9.47;;
1537;SDS011;12022;52.266;10.522;2023-04-03T07:02:03;13.50;;;13.20;;
1537;SDS011;12022;52.266;10.522;2023-04-03T07:04:31;22.27;;;21.77;;
1537;SDS011;12022;52.266;10.522;2023-04-03T07:07:02;29.13;;;28.47;;
1537;SDS011;12022;52.266;10.522;2023-04-03T07:09:29;9.90;;;9.70;;
1537;SDS011;12022;52.266;10.522;2023-04-03T07:11:56;8.83;;;8.73;;
1537;SDS011;12022;52.266;10.522;2023-04-03T07:14:23;7.77;;;7.67;;
1537;SDS011;12022;52.266;10.522;2023-04-03T07:16:50;3.87;;;3.87;;
1537;SDS011;12022;52.266;10.522;2023-04-03T07:19:17;2.33;;;2.33;;
1537;SDS011;12022;52.266;10.522;2023-04-03T07:21:44;3.50;;;3.50;;
1537;SDS011;12022;52.266;10.522;2023-04-03T07:24:11;3.40;;;3.40;;
1537;SDS011;12022;52.266;10.522;2023-04-03T07:26:42;2.70;;;2.70;;
1537;SDS011;12022;52.266;10.522;2023-04-03T07:29:09;2.53;;;2.53;;
1537;SDS011;12022;52.266;10.522;2023-04-03T07:31:38;2.33;;;2.33;;
1537;SDS011;12022;52.266;10.522;2023-04-03T07:34:06;3.80;;;3.80;;
1537;SDS011;12022;52.266;10.522;2023-04-03T07:36:33;2.17;;;2.17;;
1537;SDS011;12022;52.266;10.522;2023-04-03T07:39:00;2.33;;;2.33;;
1537;SDS011;12022;52.266;10.522;2023-04-03T07:41:27;2.80;;;2.80;;
1537;SDS011;12022;52.266;10.522;2023-04-03T07:43:54;4.27;;;4.27;;
1537;SDS011;12022;52.266;10.522;2023-04-03T07:46:23;6.77;;;6.67;;
1537;SDS011;12022;52.266;10.522;2023-04-03T07:48:50;6.03;;;5.93;;
1537;SDS011;12022;52.266;10.522;2023-04-03T07:51:17;6.80;;;6.70;;
1537;SDS011;12022;52.266;10.522;2023-04-03T07:53:44;4.10;;;4.10;;
1537;SDS011;12022;52.266;10.522;2023-04-03T07:56:11;5.77;;;5.67;;
1537;SDS011;12022;52.266;10.522;2023-04-03T07:58:38;8.47;;;8.37;;
1537;SDS011;12022;52.266;10.522;2023-04-03T08:01:05;5.40;;;5.30;;
1537;SDS011;12022;52.266;10.522;2023-04-03T08:03:32;8.80;;;8.70;;
1537;SDS011;12022;52.266;10.522;2023-04-03T08:06:03;7.07;;;6.97;;
1537;SDS011;12022;52.266;10.522;2023-04-03T08:09:04;8.83;;;8.73;;
1537;SDS011;12022;52.266;10.522;2023-04-03T08:11:31;6.97;;;6.87;;
1537;SDS011;12022;52.266;10.522;2023-04-03T08:13:58;8.20;;;8.10;;
1537;SDS011;12022;52.266;10.522;2023-04-03T08:16:25;4.40;;;4.40;;
1537;SDS011;12022;52.266;10.522;2023-04-03T08:18:54;9.90;;;9.70;;
1537;SDS011;12022;52.266;10.522;2023-04-03T08:21:21;8.60;;;8.50;;
1537;SDS011;12022;52.266;10.522;2023-04-03T08:23:49;6.33;;;6.23;;
1537;SDS011;12022;52.266;10.522;2023-04-03T08:26:20;3.90;;;3.90;;
1537;SDS011;12022;52.266;10.522;2023-04-03T08:28:48;4.13;;;4.13;;
1537;SDS011;12022;52.266;10.522;2023-04-03T08:31:17;4.30;;;4.30;;
1537;SDS011;12022;52.266;10.522;2023-04-03T08:33:46;3.73;;;3.73;;
1537;SDS011;12022;52.266;10.522;2023-04-03T08:36:19;4.90;;;4.90;;
1537;SDS011;12022;52.266;10.522;2023-04-03T08:38:50;4.20;;;4.20;;
1537;SDS011;12022;52.266;10.522;2023-04-03T08:41:27;4.17;;;4.17;;
1537;SDS011;12022;52.266;10.522;2023-04-03T08:49:35;4.63;;;4.63;;
1537;SDS011;12022;52.266;10.522;2023-04-03T08:52:18;7.90;;;7.80;;
1537;SDS011;12022;52.266;10.522;2023-04-03T08:54:54;10.27;;;10.07;;
1537;SDS011;12022;52.266;10.522;2023-04-03T08:57:28;9.50;;;9.37;;
1537;SDS011;12022;52.266;10.522;2023-04-03T08:59:57;8.00;;;7.90;;
1537;SDS011;12022;52.266;10.522;2023-04-03T09:02:55;5.83;;;5.73;;
1537;SDS011;12022;52.266;10.522;2023-04-03T09:07:53;4.60;;;4.60;;
1537;SDS011;12022;52.266;10.522;2023-04-03T09:10:46;12.37;;;12.17;;
1537;SDS011;12022;52.266;10.522;2023-04-03T09:16:38;9.33;;;9.13;;
1537;SDS011;12022;52.266;10.522;2023-04-03T09:19:30;14.10;;;13.43;;
1537;SDS011;12022;52.266;10.522;2023-04-03T09:21:57;6.40;;;6.30;;
1537;SDS011;12022;52.266;10.522;2023-04-03T09:24:45;2.97;;;2.97;;
1537;SDS011;12022;52.266;10.522;2023-04-03T09:27:16;4.20;;;4.20;;
1537;SDS011;12022;52.266;10.522;2023-04-03T09:29:43;4.00;;;4.00;;
1537;SDS011;12022;52.266;10.522;2023-04-03T09:34:51;5.80;;;5.70;;
1537;SDS011;12022;52.266;10.522;2023-04-03T09:37:58;13.23;;;13.03;;
1537;SDS011;12022;52.266;10.522;2023-04-03T09:43:02;19.20;;;18.80;;
1537;SDS011;12022;52.266;10.522;2023-04-03T09:45:44;11.17;;;10.97;;
1537;SDS011;12022;52.266;10.522;2023-04-03T09:55:55;18.30;;;17.90;;
1537;SDS011;12022;52.266;10.522;2023-04-03T09:58:25;8.47;;;8.33;;
1537;SDS011;12022;52.266;10.522;2023-04-03T10:01:23;3.43;;;3.43;;
1537;SDS011;12022;52.266;10.522;2023-04-03T10:06:39;12.07;;;11.87;;
1537;SDS011;12022;52.266;10.522;2023-04-03T10:11:58;11.33;;;11.13;;
1537;SDS011;12022;52.266;10.522;2023-04-03T10:14:28;18.20;;;17.80;;
1537;SDS011;12022;52.266;10.522;2023-04-03T10:20:07;14.00;;;13.73;;
1537;SDS011;12022;52.266;10.522;2023-04-03T10:28:28;1.80;;;1.80;;
1537;SDS011;12022;52.266;10.522;2023-04-03T10:34:41;2.13;;;2.13;;
1537;SDS011;12022;52.266;10.522;2023-04-03T10:42:33;6.77;;;6.67;;
1537;SDS011;12022;52.266;10.522;2023-04-03T10:55:46;5.10;;;5.00;;
1537;SDS011;12022;52.266;10.522;2023-04-03T10:58:33;2.80;;;2.80;;
1537;SDS011;12022;52.266;10.522;2023-04-03T11:01:08;4.00;;;4.00;;
1537;SDS011;12022;52.266;10.522;2023-04-03T11:03:44;4.10;;;4.10;;
1537;SDS011;12022;52.266;10.522;2023-04-03T11:06:15;3.47;;;3.47;;
1537;SDS011;12022;52.266;10.522;2023-04-03T11:08:45;3.60;;;3.60;;
1537;SDS011;12022;52.266;10.522;2023-04-03T11:11:17;6.00;;;5.90;;
1537;SDS011;12022;52.266;10.522;2023-04-03T11:13:52;3.50;;;3.50;;
1537;SDS011;12022;52.266;10.522;2023-04-03T11:16:26;3.50;;;3.50;;
1537;SDS011;12022;52.266;10.522;2023-04-03T11:19:05;3.43;;;3.43;;
1537;SDS011;12022;52.266;10.522;2023-04-03T11:21:45;3.70;;;3.70;;
1537;SDS011;12022;52.266;10.522;2023-04-03T11:24:26;6.10;;;6.00;;
1537;SDS011;12022;52.266;10.522;2023-04-03T11:26:56;4.47;;;4.47;;
1537;SDS011;12022;52.266;10.522;2023-04-03T11:29:34;3.07;;;3.07;;
1537;SDS011;12022;52.266;10.522;2023-04-03T11:34:51;6.83;;;6.73;;
1537;SDS011;12022;52.266;10.522;2023-04-03T11:37:32;6.33;;;6.23;;
1537;SDS011;12022;52.266;10.522;2023-04-03T11:40:08;6.70;;;6.60;;
1537;SDS011;12022;52.266;10.522;2023-04-03T11:42:47;9.43;;;9.33;;
1537;SDS011;12022;52.266;10.522;2023-04-03T11:47:52;5.80;;;5.70;;
1537;SDS011;12022;52.266;10.522;2023-04-03T12:16:06;6.67;;;6.57;;
1537;SDS011;12022;52.266;10.522;2023-04-03T12:21:22;6.30;;;6.20;;
1537;SDS011;12022;52.266;10.522;2023-04-03T12:23:57;6.00;;;5.90;;
1537;SDS011;12022;52.266;10.522;2023-04-03T12:46:21;4.67;;;4.67;;
1537;SDS011;12022;52.266;10.522;2023-04-03T12:48:51;3.73;;;3.73;;
1537;SDS011;12022;52.266;10.522;2023-04-03T12:51:39;4.40;;;4.40;;
1537;SDS011;12022;52.266;10.522;2023-04-03T12:54:13;4.00;;;4.00;;
1537;SDS011;12022;52.266;10.522;2023-04-03T12:56:44;3.70;;;3.70;;
1537;SDS011;12022;52.266;10.522;2023-04-03T12:59:20;4.30;;;4.30;;
1537;SDS011;12022;52.266;10.522;2023-04-03T13:01:56;3.23;;;3.23;;
1537;SDS011;12022;52.266;10.522;2023-04-03T13:04:29;3.73;;;3.73;;
1537;SDS011;12022;52.266;10.522;2023-04-03T13:06:57;3.17;;;3.17;;
1537;SDS011;12022;52.266;10.522;2023-04-03T13:09:26;3.53;;;3.53;;
1537;SDS011;12022;52.266;10.522;2023-04-03T13:12:13;5.60;;;5.50;;
1537;SDS011;12022;52.266;10.522;2023-04-03T13:14:51;3.50;;;3.50;;
1537;SDS011;12022;52.266;10.522;2023-04-03T13:17:20;2.47;;;2.47;;
1537;SDS011;12022;52.266;10.522;2023-04-03T13:19:48;4.53;;;4.53;;
1537;SDS011;12022;52.266;10.522;2023-04-03T13:25:10;4.30;;;4.30;;
1537;SDS011;12022;52.266;10.522;2023-04-03T13:27:41;3.90;;;3.90;;
1537;SDS011;12022;52.266;10.522;2023-04-03T13:30:20;5.97;;;5.87;;
1537;SDS011;12022;52.266;10.522;2023-04-03T13:32:54;4.27;;;4.27;;
1537;SDS011;12022;52.266;10.522;2023-04-03T13:37:54;5.57;;;5.37;;
1537;SDS011;12022;52.266;10.522;2023-04-03T13:40:22;3.20;;;3.20;;
1537;SDS011;12022;52.266;10.522;2023-04-03T13:43:01;2.77;;;2.77;;
1537;SDS011;12022;52.266;10.522;2023-04-03T13:45:33;3.87;;;3.87;;
1537;SDS011;12022;52.266;10.522;2023-04-03T13:48:09;2.27;;;2.27;;
1537;SDS011;12022;52.266;10.522;2023-04-03T13:53:43;2.07;;;2.07;;
1537;SDS011;12022;52.266;10.522;2023-04-03T13:56:26;2.67;;;2.67;;
1537;SDS011;12022;52.266;10.522;2023-04-03T14:01:53;3.93;;;3.93;;
1537;SDS011;12022;52.266;10.522;2023-04-03T14:04:44;2.93;;;2.93;;
1537;SDS011;12022;52.266;10.522;2023-04-03T14:07:29;3.40;;;3.40;;
1537;SDS011;12022;52.266;10.522;2023-04-03T14:09:57;1.90;;;1.90;;
1537;SDS011;12022;52.266;10.522;2023-04-03T14:12:35;2.20;;;2.20;;
1537;SDS011;12022;52.266;10.522;2023-04-03T14:15:27;1.87;;;1.87;;
1537;SDS011;12022;52.266;10.522;2023-04-03T14:17:54;2.40;;;2.40;;
1537;SDS011;12022;52.266;10.522;2023-04-03T14:20:23;4.63;;;4.60;;
1537;SDS011;12022;52.266;10.522;2023-04-03T14:22:52;2.07;;;2.07;;
1537;SDS011;12022;52.266;10.522;2023-04-03T14:25:20;2.80;;;2.80;;
1537;SDS011;12022;52.266;10.522;2023-04-03T14:27:52;3.20;;;3.20;;
1537;SDS011;12022;52.266;10.522;2023-04-03T14:30:27;3.27;;;3.27;;
1537;SDS011;12022;52.266;10.522;2023-04-03T14:32:59;2.53;;;2.53;;
1537;SDS011;12022;52.266;10.522;2023-04-03T14:35:27;3.07;;;3.07;;
1537;SDS011;12022;52.266;10.522;2023-04-03T14:37:54;2.90;;;2.90;;
1537;SDS011;12022;52.266;10.522;2023-04-03T14:40:23;2.83;;;2.83;;
1537;SDS011;12022;52.266;10.522;2023-04-03T14:42:52;3.83;;;3.83;;
1537;SDS011;12022;52.266;10.522;2023-04-03T14:45:22;2.53;;;2.53;;
1537;SDS011;12022;52.266;10.522;2023-04-03T14:47:51;4.07;;;3.97;;
1537;SDS011;12022;52.266;10.522;2023-04-03T14:50:21;4.37;;;4.23;;
1537;SDS011;12022;52.266;10.522;2023-04-03T14:52:50;15.87;;;15.57;;
1537;SDS011;12022;52.266;10.522;2023-04-03T14:55:21;4.00;;;3.90;;
1537;SDS011;12022;52.266;10.522;2023-04-03T14:57:49;5.60;;;5.50;;
1537;SDS011;12022;52.266;10.522;2023-04-03T15:00:18;6.13;;;6.03;;
1537;SDS011;12022;52.266;10.522;2023-04-03T15:02:46;5.03;;;4.93;;
1537;SDS011;12022;52.266;10.522;2023-04-03T15:05:22;5.17;;;5.07;;
1537;SDS011;12022;52.266;10.522;2023-04-03T15:07:53;5.80;;;5.70;;
1537;SDS011;12022;52.266;10.522;2023-04-03T15:10:23;5.40;;;5.30;;
1537;SDS011;12022;52.266;10.522;2023-04-03T15:12:52;7.13;;;7.03;;
1537;SDS011;12022;52.266;10.522;2023-04-03T15:15:20;3.23;;;3.23;;
1537;SDS011;12022;52.266;10.522;2023-04-03T15:17:53;2.73;;;2.73;;
1537;SDS011;12022;52.266;10.522;2023-04-03T15:20:23;2.43;;;2.43;;
1537;SDS011;12022;52.266;10.522;2023-04-03T15:22:52;2.80;;;2.80;;
1537;SDS011;12022;52.266;10.522;2023-04-03T15:25:19;2.10;;;2.10;;
1537;SDS011;12022;52.266;10.522;2023-04-03T15:27:47;3.03;;;3.03;;
1537;SDS011;12022;52.266;10.522;2023-04-03T15:30:16;2.67;;;2.67;;
1537;SDS011;12022;52.266;10.522;2023-04-03T15:32:45;3.17;;;3.17;;
1537;SDS011;12022;52.266;10.522;2023-04-03T15:35:12;3.00;;;3.00;;
1537;SDS011;12022;52.266;10.522;2023-04-03T15:37:40;1.97;;;1.97;;
1537;SDS011;12022;52.266;10.522;2023-04-03T15:40:07;2.63;;;2.63;;
1537;SDS011;12022;52.266;10.522;2023-04-03T15:42:35;3.60;;;3.60;;
1537;SDS011;12022;52.266;10.522;2023-04-03T15:45:02;2.43;;;2.43;;
1537;SDS011;12022;52.266;10.522;2023-04-03T15:47:29;2.03;;;2.03;;
1537;SDS011;12022;52.266;10.522;2023-04-03T15:49:56;3.20;;;3.20;;
1537;SDS011;12022;52.266;10.522;2023-04-03T15:52:23;2.87;;;2.87;;
1537;SDS011;12022;52.266;10.522;2023-04-03T15:54:50;2.77;;;2.77;;
1537;SDS011;12022;52.266;10.522;2023-04-03T15:57:17;2.67;;;2.67;;
1537;SDS011;12022;52.266;10.522;2023-04-03T15:59:44;3.07;;;3.07;;
1537;SDS011;12022;52.266;10.522;2023-04-03T16:02:11;2.33;;;2.33;;
1537;SDS011;12022;52.266;10.522;2023-04-03T16:04:40;3.40;;;3.40;;
1537;SDS011;12022;52.266;10.522;2023-04-03T16:07:07;3.40;;;3.40;;
1537;SDS011;12022;52.266;10.522;2023-04-03T16:09:34;2.37;;;2.37;;
1537;SDS011;12022;52.266;10.522;2023-04-03T16:12:02;1.90;;;1.90;;
1537;SDS011;12022;52.266;10.522;2023-04-03T16:14:29;2.60;;;2.60;;
1537;SDS011;12022;52.266;10.522;2023-04-03T16:16:57;2.60;;;2.60;;
1537;SDS011;12022;52.266;10.522;2023-04-03T16:19:28;2.43;;;2.43;;
1537;SDS011;12022;52.266;10.522;2023-04-03T16:21:55;1.73;;;1.73;;
1537;SDS011;12022;52.266;10.522;2023-04-03T16:24:22;2.53;;;2.53;;
1537;SDS011;12022;52.266;10.522;2023-04-03T16:26:49;2.17;;;2.17;;
1537;SDS011;12022;52.266;10.522;2023-04-03T16:29:16;3.80;;;3.80;;
1537;SDS011;12022;52.266;10.522;2023-04-03T16:31:47;2.60;;;2.60;;
1537;SDS011;12022;52.266;10.522;2023-04-03T16:34:14;2.47;;;2.47;;
1537;SDS011;12022;52.266;10.522;2023-04-03T16:36:42;4.40;;;4.40;;
1537;SDS011;12022;52.266;10.522;2023-04-03T16:39:09;3.90;;;3.90;;
1537;SDS011;12022;52.266;10.522;2023-04-03T16:41:36;4.50;;;4.50;;
1537;SDS011;12022;52.266;10.522;2023-04-03T16:44:03;4.07;;;4.07;;
1537;SDS011;12022;52.266;10.522;2023-04-03T16:46:30;6.63;;;6.53;;
1537;SDS011;12022;52.266;10.522;2023-04-03T16:48:57;4.30;;;4.30;;
1537;SDS011;12022;52.266;10.522;2023-04-03T16:51:24;3.30;;;3.30;;
1537;SDS011;12022;52.266;10.522;2023-04-03T16:53:51;3.77;;;3.77;;
1537;SDS011;12022;52.266;10.522;2023-04-03T16:56:18;4.93;;;4.83;;
1537;SDS011;12022;52.266;10.522;2023-04-03T16:58:52;5.83;;;5.73;;
1537;SDS011;12022;52.266;10.522;2023-04-03T17:01:22;6.17;;;6.07;;
1537;SDS011;12022;52.266;10.522;2023-04-03T17:03:50;4.40;;;4.37;;
1537;SDS011;12022;52.266;10.522;2023-04-03T17:06:18;5.00;;;4.97;;
1537;SDS011;12022;52.266;10.522;2023-04-03T17:08:50;5.37;;;5.27;;
1537;SDS011;12022;52.266;10.522;2023-04-03T17:11:18;3.90;;;3.90;;
1537;SDS011;12022;52.266;10.522;2023-04-03T17:13:46;4.80;;;4.80;;
1537;SDS011;12022;52.266;10.522;2023-04-03T17:16:14;5.20;;;5.10;;
1537;SDS011;12022;52.266;10.522;2023-04-03T17:18:42;3.93;;;3.93;;
1537;SDS011;12022;52.266;10.522;2023-04-03T17:21:10;3.83;;;3.83;;
1537;SDS011;12022;52.266;10.522;2023-04-03T17:23:38;4.27;;;4.27;;
1537;SDS011;12022;52.266;10.522;2023-04-03T17:26:08;3.00;;;3.00;;
1537;SDS011;12022;52.266;10.522;2023-04-03T17:28:35;3.17;;;3.17;;
1537;SDS011;12022;52.266;10.522;2023-04-03T17:31:19;2.77;;;2.77;;
1537;SDS011;12022;52.266;10.522;2023-04-03T17:34:30;2.80;;;2.80;;
1537;SDS011;12022;52.266;10.522;2023-04-03T17:36:59;1.80;;;1.80;;
1537;SDS011;12022;52.266;10.522;2023-04-03T17:39:26;2.90;;;2.90;;
1537;SDS011;12022;52.266;10.522;2023-04-03T17:41:58;2.27;;;2.27;;
1537;SDS011;12022;52.266;10.522;2023-04-03T17:44:26;4.40;;;4.40;;
1537;SDS011;12022;52.266;10.522;2023-04-03T17:46:53;6.50;;;6.40;;
1537;SDS011;12022;52.266;10.522;2023-04-03T17:49:20;6.23;;;6.13;;
1537;SDS011;12022;52.266;10.522;2023-04-03T17:51:48;3.77;;;3.77;;
1537;SDS011;12022;52.266;10.522;2023-04-03T17:54:14;4.20;;;4.20;;
1537;SDS011;12022;52.266;10.522;2023-04-03T17:56:44;4.30;;;4.30;;
1537;SDS011;12022;52.266;10.522;2023-04-03T17:59:14;5.20;;;5.10;;
1537;SDS011;12022;52.266;10.522;2023-04-03T18:01:42;5.00;;;4.97;;
1537;SDS011;12022;52.266;10.522;2023-04-03T18:04:12;6.57;;;6.47;;
1537;SDS011;12022;52.266;10.522;2023-04-03T18:06:40;3.60;;;3.60;;
1537;SDS011;12022;52.266;10.522;2023-04-03T18:09:13;3.40;;;3.40;;
1537;SDS011;12022;52.266;10.522;2023-04-03T18:11:46;2.50;;;2.50;;
1537;SDS011;12022;52.266;10.522;2023-04-03T18:14:15;2.73;;;2.73;;
1537;SDS011;12022;52.266;10.522;2023-04-03T18:16:45;3.13;;;3.13;;
1537;SDS011;12022;52.266;10.522;2023-04-03T18:19:12;3.10;;;3.10;;
1537;SDS011;12022;52.266;10.522;2023-04-03T18:21:42;3.67;;;3.67;;
1537;SDS011;12022;52.266;10.522;2023-04-03T18:24:11;3.80;;;3.80;;
1537;SDS011;12022;52.266;10.522;2023-04-03T18:26:41;2.50;;;2.50;;
1537;SDS011;12022;52.266;10.522;2023-04-03T18:29:12;3.40;;;3.40;;
1537;SDS011;12022;52.266;10.522;2023-04-03T18:31:42;2.47;;;2.47;;
1537;SDS011;12022;52.266;10.522;2023-04-03T18:34:13;1.93;;;1.93;;
1537;SDS011;12022;52.266;10.522;2023-04-03T18:36:40;2.33;;;2.33;;
1537;SDS011;12022;52.266;10.522;2023-04-03T18:39:07;2.00;;;2.00;;
1537;SDS011;12022;52.266;10.522;2023-04-03T18:41:35;2.07;;;2.07;;
1537;SDS011;12022;52.266;10.522;2023-04-03T18:44:07;2.80;;;2.80;;
1537;SDS011;12022;52.266;10.522;2023-04-03T18:46:38;2.37;;;2.37;;
1537;SDS011;12022;52.266;10.522;2023-04-03T18:49:08;3.23;;;3.23;;
1537;SDS011;12022;52.266;10.522;2023-04-03T18:51:36;4.20;;;4.20;;
1537;SDS011;12022;52.266;10.522;2023-04-03T18:54:05;2.77;;;2.77;;
1537;SDS011;12022;52.266;10.522;2023-04-03T18:56:35;2.07;;;2.07;;
1537;SDS011;12022;52.266;10.522;2023-04-03T18:59:03;2.10;;;2.10;;
1537;SDS011;12022;52.266;10.522;2023-04-03T19:01:30;2.03;;;2.03;;
1537;SDS011;12022;52.266;10.522;2023-04-03T19:04:00;1.63;;;1.63;;
1537;SDS011;12022;52.266;10.522;2023-04-03T19:06:31;1.20;;;1.20;;
1537;SDS011;12022;52.266;10.522;2023-04-03T19:09:00;2.00;;;2.00;;
1537;SDS011;12022;52.266;10.522;2023-04-03T19:11:28;2.50;;;2.50;;
1537;SDS011;12022;52.266;10.522;2023-04-03T19:14:01;3.83;;;3.83;;
1537;SDS011;12022;52.266;10.522;2023-04-03T19:16:41;2.93;;;2.93;;
1537;SDS011;12022;52.266;10.522;2023-04-03T19:19:08;1.70;;;1.70;;
1537;SDS011;12022;52.266;10.522;2023-04-03T19:21:36;2.47;;;2.47;;
1537;SDS011;12022;52.266;10.522;2023-04-03T19:24:11;1.87;;;1.87;;
1537;SDS011;12022;52.266;10.522;2023-04-03T19:26:40;4.90;;;4.80;;
1537;SDS011;12022;52.266;10.522;2023-04-03T19:29:10;1.50;;;1.50;;
1537;SDS011;12022;52.266;10.522;2023-04-03T19:31:37;2.17;;;2.17;;
1537;SDS011;12022;52.266;10.522;2023-04-03T19:34:08;2.00;;;2.00;;
1537;SDS011;12022;52.266;10.522;2023-04-03T19:36:35;2.77;;;2.77;;
1537;SDS011;12022;52.266;10.522;2023-04-03T19:39:03;2.43;;;2.43;;
1537;SDS011;12022;52.266;10.522;2023-04-03T19:41:32;3.40;;;3.40;;
1537;SDS011;12022;52.266;10.522;2023-04-03T19:44:00;2.10;;;2.10;;
1537;SDS011;12022;52.266;10.522;2023-04-03T19:46:30;2.10;;;2.10;;
1537;SDS011;12022;52.266;10.522;2023-04-03T19:48:57;3.47;;;3.47;;
1537;SDS011;12022;52.266;10.522;2023-04-03T19:51:24;3.10;;;3.10;;
1537;SDS011;12022;52.266;10.522;2023-04-03T19:53:52;3.20;;;3.20;;
1537;SDS011;12022;52.266;10.522;2023-04-03T19:56:19;3.27;;;3.27;;
1537;SDS011;12022;52.266;10.522;2023-04-03T19:58:47;2.77;;;2.77;;
1537;SDS011;12022;52.266;10.522;2023-04-03T20:01:20;3.73;;;3.73;;
1537;SDS011;12022;52.266;10.522;2023-04-03T20:03:52;3.30;;;3.30;;